sensor_id;sensor_type;location;lat;lon;timestamp;temperature;humidity
63966;DHT22;50151;52.030;5.350;2022-11-21T07:15:07;3.10;99.90
63966;DHT22;50151;52.030;5.350;2022-11-21T07:17:34;3.10;99.90
63966;DHT22;50151;52.030;5.350;2022-11-21T07:20:00;3.20;99.90
63966;DHT22;50151;52.030;5.350;2022-11-21T07:22:27;3.20;99.90
63966;DHT22;50151;52.030;5.350;2022-11-21T07:24:54;3.20;99.90
63966;DHT22;50151;52.030;5.350;2022-11-21T07:27:20;3.20;99.90
63966;DHT22;50151;52.030;5.350;2022-11-21T07:29:47;3.20;99.90
63966;DHT22;50151;52.030;5.350;2022-11-21T07:32:14;3.20;99.90
63966;DHT22;50151;52.030;5.350;2022-11-21T07:34:41;3.30;99.90
63966;DHT22;50151;52.030;5.350;2022-11-21T07:37:07;3.30;99.90
63966;DHT22;50151;52.030;5.350;2022-11-21T07:39:34;3.30;99.90
63966;DHT22;50151;52.030;5.350;2022-11-21T07:42:01;3.30;99.90
63966;DHT22;50151;52.030;5.350;2022-11-21T07:44:27;3.30;99.90
63966;DHT22;50151;52.030;5.350;2022-11-21T07:46:54;3.30;99.90
63966;DHT22;50151;52.030;5.350;2022-11-21T07:49:21;3.30;99.90
63966;DHT22;50151;52.030;5.350;2022-11-21T07:51:48;3.40;99.90
63966;DHT22;50151;52.030;5.350;2022-11-21T07:54:15;3.40;99.90
63966;DHT22;50151;52.030;5.350;2022-11-21T07:56:42;3.40;99.90
63966;DHT22;50151;52.030;5.350;2022-11-21T07:59:09;3.40;99.90
63966;DHT22;50151;52.030;5.350;2022-11-21T08:01:35;3.40;99.90
63966;DHT22;50151;52.030;5.350;2022-11-21T08:04:08;3.40;99.90
63966;DHT22;50151;52.030;5.350;2022-11-21T08:06:34;3.50;99.90
63966;DHT22;50151;52.030;5.350;2022-11-21T08:09:02;3.50;99.90
63966;DHT22;50151;52.030;5.350;2022-11-21T08:11:28;3.50;99.90
63966;DHT22;50151;52.030;5.350;2022-11-21T08:13:57;3.60;99.90
63966;DHT22;50151;52.030;5.350;2022-11-21T08:16:24;3.60;99.90
63966;DHT22;50151;52.030;5.350;2022-11-21T08:18:53;3.60;99.90
63966;DHT22;50151;52.030;5.350;2022-11-21T08:21:20;3.60;99.90
63966;DHT22;50151;52.030;5.350;2022-11-21T08:23:47;3.60;99.90
63966;DHT22;50151;52.030;5.350;2022-11-21T08:26:13;3.70;99.90
63966;DHT22;50151;52.030;5.350;2022-11-21T08:28:40;3.70;99.90
63966;DHT22;50151;52.030;5.350;2022-11-21T08:31:07;3.80;99.90
63966;DHT22;50151;52.030;5.350;2022-11-21T08:33:33;3.80;99.90
63966;DHT22;50151;52.030;5.350;2022-11-21T08:36:06;3.80;99.90
63966;DHT22;50151;52.030;5.350;2022-11-21T08:38:33;3.80;99.90
63966;DHT22;50151;52.030;5.350;2022-11-21T08:40:59;3.90;99.90
63966;DHT22;50151;52.030;5.350;2022-11-21T08:43:44;3.90;99.90
63966;DHT22;50151;52.030;5.350;2022-11-21T08:46:11;4.00;99.90
63966;DHT22;50151;52.030;5.350;2022-11-21T08:48:38;4.00;99.90
63966;DHT22;50151;52.030;5.350;2022-11-21T08:51:04;4.00;99.90
63966;DHT22;50151;52.030;5.350;2022-11-21T08:53:31;4.10;99.90
63966;DHT22;50151;52.030;5.350;2022-11-21T08:55:58;4.10;99.90
63966;DHT22;50151;52.030;5.350;2022-11-21T08:58:29;4.10;99.90
63966;DHT22;50151;52.030;5.350;2022-11-21T09:00:58;4.20;99.90
63966;DHT22;50151;52.030;5.350;2022-11-21T09:03:25;4.20;99.90
63966;DHT22;50151;52.030;5.350;2022-11-21T09:05:57;4.20;99.90
63966;DHT22;50151;52.030;5.350;2022-11-21T09:08:24;4.30;99.90
63966;DHT22;50151;52.030;5.350;2022-11-21T09:10:51;4.30;99.90
63966;DHT22;50151;52.030;5.350;2022-11-21T09:13:17;4.40;99.90
63966;DHT22;50151;52.030;5.350;2022-11-21T09:15:44;4.40;99.90
63966;DHT22;50151;52.030;5.350;2022-11-21T09:18:29;4.40;99.90
63966;DHT22;50151;52.030;5.350;2022-11-21T09:20:56;4.40;99.90
63966;DHT22;50151;52.030;5.350;2022-11-21T09:23:24;4.50;99.90
63966;DHT22;50151;52.030;5.350;2022-11-21T09:25:51;4.50;99.90
63966;DHT22;50151;52.030;5.350;2022-11-21T09:28:18;4.50;99.90
63966;DHT22;50151;52.030;5.350;2022-11-21T09:30:44;4.60;99.90
63966;DHT22;50151;52.030;5.350;2022-11-21T09:33:13;4.70;99.90
63966;DHT22;50151;52.030;5.350;2022-11-21T09:35:40;4.80;99.90
63966;DHT22;50151;52.030;5.350;2022-11-21T09:38:07;4.80;99.90
63966;DHT22;50151;52.030;5.350;2022-11-21T09:40:34;4.80;99.90
63966;DHT22;50151;52.030;5.350;2022-11-21T09:43:14;4.80;99.90
63966;DHT22;50151;52.030;5.350;2022-11-21T09:45:48;4.90;99.90
63966;DHT22;50151;52.030;5.350;2022-11-21T09:48:30;4.90;99.90
63966;DHT22;50151;52.030;5.350;2022-11-21T09:51:05;5.00;99.90
63966;DHT22;50151;52.030;5.350;2022-11-21T09:53:36;5.00;99.90
63966;DHT22;50151;52.030;5.350;2022-11-21T09:56:08;5.00;99.90
63966;DHT22;50151;52.030;5.350;2022-11-21T09:58:41;5.10;99.90
63966;DHT22;50151;52.030;5.350;2022-11-21T10:01:11;5.10;99.90
63966;DHT22;50151;52.030;5.350;2022-11-21T10:03:42;5.20;99.90
63966;DHT22;50151;52.030;5.350;2022-11-21T10:06:17;5.20;99.90
63966;DHT22;50151;52.030;5.350;2022-11-21T10:11:48;5.30;99.90
63966;DHT22;50151;52.030;5.350;2022-11-21T10:15:02;5.40;99.90
63966;DHT22;50151;52.030;5.350;2022-11-21T10:25:54;5.60;99.90
63966;DHT22;50151;52.030;5.350;2022-11-21T10:28:32;5.70;99.90
63966;DHT22;50151;52.030;5.350;2022-11-21T10:31:02;5.70;99.90
63966;DHT22;50151;52.030;5.350;2022-11-21T10:33:31;5.70;99.90
63966;DHT22;50151;52.030;5.350;2022-11-21T10:38:40;5.80;99.90
63966;DHT22;50151;52.030;5.350;2022-11-21T10:41:23;5.80;99.90
63966;DHT22;50151;52.030;5.350;2022-11-21T10:43:58;5.90;99.90
63966;DHT22;50151;52.030;5.350;2022-11-21T10:46:55;5.90;99.90
63966;DHT22;50151;52.030;5.350;2022-11-21T10:49:24;5.90;99.90
63966;DHT22;50151;52.030;5.350;2022-11-21T10:54:24;6.10;99.90
63966;DHT22;50151;52.030;5.350;2022-11-21T10:57:06;6.10;99.90
63966;DHT22;50151;52.030;5.350;2022-11-21T10:59:36;6.20;99.90
63966;DHT22;50151;52.030;5.350;2022-11-21T11:04:39;6.30;99.90
63966;DHT22;50151;52.030;5.350;2022-11-21T11:07:26;6.40;99.90
63966;DHT22;50151;52.030;5.350;2022-11-21T11:10:23;6.50;99.90
63966;DHT22;50151;52.030;5.350;2022-11-21T11:12:54;6.70;99.90
63966;DHT22;50151;52.030;5.350;2022-11-21T11:29:16;7.30;99.90
63966;DHT22;50151;52.030;5.350;2022-11-21T11:32:13;7.40;99.90
63966;DHT22;50151;52.030;5.350;2022-11-21T11:37:29;7.50;99.90
63966;DHT22;50151;52.030;5.350;2022-11-21T11:40:43;7.50;99.90
63966;DHT22;50151;52.030;5.350;2022-11-21T11:43:24;7.50;99.90
63966;DHT22;50151;52.030;5.350;2022-11-21T11:46:24;7.60;99.90
63966;DHT22;50151;52.030;5.350;2022-11-21T11:49:28;7.70;99.90
63966;DHT22;50151;52.030;5.350;2022-11-21T11:52:01;7.80;99.90
63966;DHT22;50151;52.030;5.350;2022-11-21T11:54:33;7.90;99.90
63966;DHT22;50151;52.030;5.350;2022-11-21T11:57:03;7.90;99.90
63966;DHT22;50151;52.030;5.350;2022-11-21T11:59:40;8.00;99.90
63966;DHT22;50151;52.030;5.350;2022-11-21T12:05:02;8.10;99.90
63966;DHT22;50151;52.030;5.350;2022-11-21T12:07:39;8.20;99.90
63966;DHT22;50151;52.030;5.350;2022-11-21T12:10:33;8.40;99.90
63966;DHT22;50151;52.030;5.350;2022-11-21T12:13:23;8.70;99.90
63966;DHT22;50151;52.030;5.350;2022-11-21T12:15:54;8.80;99.90
63966;DHT22;50151;52.030;5.350;2022-11-21T12:19:02;8.90;99.90
63966;DHT22;50151;52.030;5.350;2022-11-21T12:21:30;9.10;99.90
63966;DHT22;50151;52.030;5.350;2022-11-21T12:24:00;9.00;99.90
63966;DHT22;50151;52.030;5.350;2022-11-21T12:26:30;9.00;99.90
63966;DHT22;50151;52.030;5.350;2022-11-21T12:29:21;9.10;99.90
63966;DHT22;50151;52.030;5.350;2022-11-21T12:35:14;9.00;99.90
63966;DHT22;50151;52.030;5.350;2022-11-21T12:42:58;9.00;99.90
63966;DHT22;50151;52.030;5.350;2022-11-21T12:45:34;9.00;99.90
63966;DHT22;50151;52.030;5.350;2022-11-21T12:57:13;9.10;99.90
63966;DHT22;50151;52.030;5.350;2022-11-21T13:02:30;8.90;99.90
63966;DHT22;50151;52.030;5.350;2022-11-21T13:05:01;8.90;99.90
63966;DHT22;50151;52.030;5.350;2022-11-21T13:07:29;8.90;99.90
63966;DHT22;50151;52.030;5.350;2022-11-21T13:09:59;8.90;99.90
63966;DHT22;50151;52.030;5.350;2022-11-21T13:12:38;8.80;99.90
63966;DHT22;50151;52.030;5.350;2022-11-21T13:17:57;8.90;99.90
63966;DHT22;50151;52.030;5.350;2022-11-21T13:20:38;8.80;99.90
63966;DHT22;50151;52.030;5.350;2022-11-21T13:23:34;8.80;99.90
63966;DHT22;50151;52.030;5.350;2022-11-21T13:29:07;8.80;99.90
63966;DHT22;50151;52.030;5.350;2022-11-21T13:31:35;8.80;99.90
63966;DHT22;50151;52.030;5.350;2022-11-21T13:34:03;9.00;99.90
63966;DHT22;50151;52.030;5.350;2022-11-21T14:00:28;8.50;99.90
63966;DHT22;50151;52.030;5.350;2022-11-21T14:03:25;8.40;99.90
63966;DHT22;50151;52.030;5.350;2022-11-21T14:08:40;8.30;99.90
63966;DHT22;50151;52.030;5.350;2022-11-21T14:11:19;8.30;99.90
63966;DHT22;50151;52.030;5.350;2022-11-21T14:13:47;8.20;99.90
63966;DHT22;50151;52.030;5.350;2022-11-21T14:16:34;8.30;99.90
63966;DHT22;50151;52.030;5.350;2022-11-21T14:19:04;8.20;99.90
63966;DHT22;50151;52.030;5.350;2022-11-21T14:21:31;8.20;99.90
63966;DHT22;50151;52.030;5.350;2022-11-21T14:24:03;8.20;99.90
63966;DHT22;50151;52.030;5.350;2022-11-21T14:26:44;8.20;99.90
63966;DHT22;50151;52.030;5.350;2022-11-21T14:29:23;8.10;99.90
63966;DHT22;50151;52.030;5.350;2022-11-21T14:31:52;8.10;99.90
63966;DHT22;50151;52.030;5.350;2022-11-21T14:34:27;8.10;99.90
63966;DHT22;50151;52.030;5.350;2022-11-21T14:36:57;8.00;99.90
63966;DHT22;50151;52.030;5.350;2022-11-21T14:39:26;8.00;99.90
63966;DHT22;50151;52.030;5.350;2022-11-21T14:42:10;8.00;99.90
63966;DHT22;50151;52.030;5.350;2022-11-21T14:44:37;8.00;99.90
63966;DHT22;50151;52.030;5.350;2022-11-21T14:47:18;7.90;99.90
63966;DHT22;50151;52.030;5.350;2022-11-21T14:49:53;7.90;99.90
63966;DHT22;50151;52.030;5.350;2022-11-21T14:52:26;7.90;99.90
63966;DHT22;50151;52.030;5.350;2022-11-21T14:55:03;7.90;99.90
63966;DHT22;50151;52.030;5.350;2022-11-21T14:57:51;7.90;99.90
63966;DHT22;50151;52.030;5.350;2022-11-21T15:00:20;7.80;99.90
63966;DHT22;50151;52.030;5.350;2022-11-21T15:03:21;7.80;99.90
63966;DHT22;50151;52.030;5.350;2022-11-21T15:05:58;7.70;99.90
63966;DHT22;50151;52.030;5.350;2022-11-21T15:08:32;7.70;99.90
63966;DHT22;50151;52.030;5.350;2022-11-21T15:12:06;7.70;99.90
63966;DHT22;50151;52.030;5.350;2022-11-21T15:14:24;7.70;99.90
63966;DHT22;50151;52.030;5.350;2022-11-21T15:16:52;7.60;99.90
63966;DHT22;50151;52.030;5.350;2022-11-21T15:19:25;7.60;99.90
63966;DHT22;50151;52.030;5.350;2022-11-21T15:21:56;7.60;99.90
63966;DHT22;50151;52.030;5.350;2022-11-21T15:32:59;7.50;99.90
63966;DHT22;50151;52.030;5.350;2022-11-21T15:38:21;7.50;99.90
63966;DHT22;50151;52.030;5.350;2022-11-21T15:43:40;7.50;99.90
63966;DHT22;50151;52.030;5.350;2022-11-21T15:46:16;7.50;99.90
63966;DHT22;50151;52.030;5.350;2022-11-21T15:48:47;7.40;99.90
63966;DHT22;50151;52.030;5.350;2022-11-21T15:51:15;7.40;99.90
63966;DHT22;50151;52.030;5.350;2022-11-21T15:53:57;7.40;99.90
63966;DHT22;50151;52.030;5.350;2022-11-21T15:56:24;7.40;99.90
63966;DHT22;50151;52.030;5.350;2022-11-21T15:58:51;7.40;99.90
63966;DHT22;50151;52.030;5.350;2022-11-21T16:01:20;7.30;99.90
63966;DHT22;50151;52.030;5.350;2022-11-21T16:03:51;7.30;99.90
63966;DHT22;50151;52.030;5.350;2022-11-21T16:06:19;7.30;99.90
63966;DHT22;50151;52.030;5.350;2022-11-21T16:08:45;7.30;99.90
63966;DHT22;50151;52.030;5.350;2022-11-21T16:11:33;7.30;99.90
63966;DHT22;50151;52.030;5.350;2022-11-21T16:14:04;7.30;99.90
63966;DHT22;50151;52.030;5.350;2022-11-21T16:16:35;7.30;99.90
63966;DHT22;50151;52.030;5.350;2022-11-21T16:19:12;7.20;99.90
63966;DHT22;50151;52.030;5.350;2022-11-21T16:21:39;7.20;99.90
63966;DHT22;50151;52.030;5.350;2022-11-21T16:24:07;7.20;99.90
63966;DHT22;50151;52.030;5.350;2022-11-21T16:26:34;7.20;99.90
63966;DHT22;50151;52.030;5.350;2022-11-21T16:29:01;7.20;99.90
63966;DHT22;50151;52.030;5.350;2022-11-21T16:31:31;7.20;99.90
63966;DHT22;50151;52.030;5.350;2022-11-21T16:33:58;7.20;99.90
63966;DHT22;50151;52.030;5.350;2022-11-21T16:36:28;7.20;99.90
63966;DHT22;50151;52.030;5.350;2022-11-21T16:38:55;7.20;99.90
63966;DHT22;50151;52.030;5.350;2022-11-21T16:41:29;7.20;99.90
63966;DHT22;50151;52.030;5.350;2022-11-21T16:43:55;7.20;99.90
63966;DHT22;50151;52.030;5.350;2022-11-21T16:46:23;7.20;99.90
63966;DHT22;50151;52.030;5.350;2022-11-21T16:48:58;7.10;99.90
63966;DHT22;50151;52.030;5.350;2022-11-21T16:51:26;7.10;99.90
63966;DHT22;50151;52.030;5.350;2022-11-21T16:53:52;7.10;99.90
63966;DHT22;50151;52.030;5.350;2022-11-21T16:56:20;7.10;99.90
63966;DHT22;50151;52.030;5.350;2022-11-21T16:58:46;7.00;99.90
63966;DHT22;50151;52.030;5.350;2022-11-21T17:01:15;7.10;99.90
63966;DHT22;50151;52.030;5.350;2022-11-21T17:03:44;7.00;99.90
63966;DHT22;50151;52.030;5.350;2022-11-21T17:06:15;7.00;99.90
63966;DHT22;50151;52.030;5.350;2022-11-21T17:08:42;7.00;99.90
63966;DHT22;50151;52.030;5.350;2022-11-21T17:13:42;7.00;99.90
63966;DHT22;50151;52.030;5.350;2022-11-21T17:16:10;7.00;99.90
63966;DHT22;50151;52.030;5.350;2022-11-21T17:18:40;7.00;99.90
63966;DHT22;50151;52.030;5.350;2022-11-21T17:21:09;6.90;99.90
63966;DHT22;50151;52.030;5.350;2022-11-21T17:23:38;6.90;99.90
63966;DHT22;50151;52.030;5.350;2022-11-21T17:26:07;6.90;99.90
63966;DHT22;50151;52.030;5.350;2022-11-21T17:28:34;6.90;99.90
63966;DHT22;50151;52.030;5.350;2022-11-21T17:31:06;6.80;99.90
63966;DHT22;50151;52.030;5.350;2022-11-21T17:33:34;6.80;99.90
63966;DHT22;50151;52.030;5.350;2022-11-21T17:36:11;6.80;99.90
63966;DHT22;50151;52.030;5.350;2022-11-21T17:38:39;6.80;99.90
63966;DHT22;50151;52.030;5.350;2022-11-21T17:41:07;6.80;99.90
63966;DHT22;50151;52.030;5.350;2022-11-21T17:43:35;6.80;99.90
63966;DHT22;50151;52.030;5.350;2022-11-21T17:46:06;6.80;99.90
63966;DHT22;50151;52.030;5.350;2022-11-21T17:48:36;6.80;99.90
63966;DHT22;50151;52.030;5.350;2022-11-21T17:51:09;6.80;99.90
63966;DHT22;50151;52.030;5.350;2022-11-21T17:53:39;6.80;99.90
63966;DHT22;50151;52.030;5.350;2022-11-21T17:56:09;6.80;99.90
63966;DHT22;50151;52.030;5.350;2022-11-21T17:58:36;6.80;99.90
63966;DHT22;50151;52.030;5.350;2022-11-21T18:01:04;6.80;99.90
63966;DHT22;50151;52.030;5.350;2022-11-21T18:03:31;6.80;99.90
63966;DHT22;50151;52.030;5.350;2022-11-21T18:06:09;6.70;99.90
63966;DHT22;50151;52.030;5.350;2022-11-21T18:08:38;6.70;99.90
63966;DHT22;50151;52.030;5.350;2022-11-21T18:11:07;6.70;99.90
63966;DHT22;50151;52.030;5.350;2022-11-21T18:13:38;6.70;99.90
63966;DHT22;50151;52.030;5.350;2022-11-21T18:16:10;6.70;99.90
63966;DHT22;50151;52.030;5.350;2022-11-21T18:18:38;6.70;99.90
63966;DHT22;50151;52.030;5.350;2022-11-21T18:21:08;6.70;99.90
63966;DHT22;50151;52.030;5.350;2022-11-21T18:23:35;6.70;99.90
63966;DHT22;50151;52.030;5.350;2022-11-21T18:26:03;6.70;99.90
63966;DHT22;50151;52.030;5.350;2022-11-21T18:28:31;6.70;99.90
63966;DHT22;50151;52.030;5.350;2022-11-21T18:31:08;6.70;99.90
63966;DHT22;50151;52.030;5.350;2022-11-21T18:33:36;6.70;99.90
63966;DHT22;50151;52.030;5.350;2022-11-21T18:36:05;6.70;99.90
63966;DHT22;50151;52.030;5.350;2022-11-21T18:38:33;6.70;99.90
63966;DHT22;50151;52.030;5.350;2022-11-21T18:41:23;6.70;99.90
63966;DHT22;50151;52.030;5.350;2022-11-21T18:43:52;6.70;99.90
63966;DHT22;50151;52.030;5.350;2022-11-21T18:46:20;6.70;99.90
63966;DHT22;50151;52.030;5.350;2022-11-21T18:48:47;6.70;99.90
63966;DHT22;50151;52.030;5.350;2022-11-21T18:51:34;6.70;99.90
63966;DHT22;50151;52.030;5.350;2022-11-21T18:54:04;6.70;99.90
63966;DHT22;50151;52.030;5.350;2022-11-21T18:56:33;6.70;99.90
63966;DHT22;50151;52.030;5.350;2022-11-21T18:59:01;6.70;99.90
63966;DHT22;50151;52.030;5.350;2022-11-21T19:01:29;6.70;99.90
63966;DHT22;50151;52.030;5.350;2022-11-21T19:03:57;6.70;99.90
63966;DHT22;50151;52.030;5.350;2022-11-21T19:06:25;6.70;99.90
63966;DHT22;50151;52.030;5.350;2022-11-21T19:08:54;6.70;99.90
63966;DHT22;50151;52.030;5.350;2022-11-21T19:11:22;6.70;99.90
63966;DHT22;50151;52.030;5.350;2022-11-21T19:13:51;6.70;99.90
63966;DHT22;50151;52.030;5.350;2022-11-21T19:16:20;6.70;99.90
63966;DHT22;50151;52.030;5.350;2022-11-21T19:18:47;6.70;99.90
63966;DHT22;50151;52.030;5.350;2022-11-21T19:21:36;6.70;99.90
63966;DHT22;50151;52.030;5.350;2022-11-21T19:24:04;6.70;99.90
63966;DHT22;50151;52.030;5.350;2022-11-21T19:26:32;6.70;99.90
63966;DHT22;50151;52.030;5.350;2022-11-21T19:28:59;6.70;99.90
63966;DHT22;50151;52.030;5.350;2022-11-21T19:31:26;6.70;99.90
63966;DHT22;50151;52.030;5.350;2022-11-21T19:33:53;6.70;99.90
63966;DHT22;50151;52.030;5.350;2022-11-21T19:36:21;6.80;99.90
63966;DHT22;50151;52.030;5.350;2022-11-21T19:38:49;6.70;99.90
63966;DHT22;50151;52.030;5.350;2022-11-21T19:41:21;6.70;99.90
63966;DHT22;50151;52.030;5.350;2022-11-21T19:43:52;6.70;99.90
63966;DHT22;50151;52.030;5.350;2022-11-21T19:46:31;6.70;99.90
63966;DHT22;50151;52.030;5.350;2022-11-21T19:48:59;6.70;99.90
63966;DHT22;50151;52.030;5.350;2022-11-21T19:51:42;6.70;99.90
63966;DHT22;50151;52.030;5.350;2022-11-21T19:54:11;6.70;99.90
63966;DHT22;50151;52.030;5.350;2022-11-21T19:56:38;6.70;99.90
63966;DHT22;50151;52.030;5.350;2022-11-21T19:59:05;6.60;99.90
63966;DHT22;50151;52.030;5.350;2022-11-21T20:01:33;6.70;99.90
63966;DHT22;50151;52.030;5.350;2022-11-21T20:04:02;6.70;99.90
63966;DHT22;50151;52.030;5.350;2022-11-21T20:06:34;6.60;99.90
63966;DHT22;50151;52.030;5.350;2022-11-21T20:09:08;6.60;99.90
63966;DHT22;50151;52.030;5.350;2022-11-21T20:11:35;6.60;99.90
63966;DHT22;50151;52.030;5.350;2022-11-21T20:14:03;6.60;99.90
63966;DHT22;50151;52.030;5.350;2022-11-21T20:16:39;6.50;99.90
63966;DHT22;50151;52.030;5.350;2022-11-21T20:19:12;6.60;99.90
63966;DHT22;50151;52.030;5.350;2022-11-21T20:21:41;6.50;99.90
63966;DHT22;50151;52.030;5.350;2022-11-21T20:24:08;6.50;99.90
63966;DHT22;50151;52.030;5.350;2022-11-21T20:26:35;6.50;99.90
63966;DHT22;50151;52.030;5.350;2022-11-21T20:29:02;6.60;99.90
63966;DHT22;50151;52.030;5.350;2022-11-21T20:31:34;6.60;99.90
63966;DHT22;50151;52.030;5.350;2022-11-21T20:34:12;6.50;99.90
63966;DHT22;50151;52.030;5.350;2022-11-21T20:36:39;6.50;99.90
63966;DHT22;50151;52.030;5.350;2022-11-21T20:39:16;6.50;99.90
63966;DHT22;50151;52.030;5.350;2022-11-21T20:41:44;6.50;99.90
63966;DHT22;50151;52.030;5.350;2022-11-21T20:44:16;6.50;99.90
63966;DHT22;50151;52.030;5.350;2022-11-21T20:47:05;6.50;99.90
63966;DHT22;50151;52.030;5.350;2022-11-21T20:49:32;6.50;99.90
63966;DHT22;50151;52.030;5.350;2022-11-21T20:51:59;6.50;99.90
63966;DHT22;50151;52.030;5.350;2022-11-21T20:54:45;6.50;99.90
63966;DHT22;50151;52.030;5.350;2022-11-21T20:57:12;6.50;99.90
63966;DHT22;50151;52.030;5.350;2022-11-21T20:59:41;6.50;99.90
63966;DHT22;50151;52.030;5.350;2022-11-21T21:02:08;6.50;99.90
63966;DHT22;50151;52.030;5.350;2022-11-21T21:04:37;6.50;99.90
63966;DHT22;50151;52.030;5.350;2022-11-21T21:07:04;6.50;99.90
63966;DHT22;50151;52.030;5.350;2022-11-21T21:09:31;6.50;99.90
63966;DHT22;50151;52.030;5.350;2022-11-21T21:11:58;6.50;99.90
63966;DHT22;50151;52.030;5.350;2022-11-21T21:14:24;6.50;99.90
63966;DHT22;50151;52.030;5.350;2022-11-21T21:16:51;6.50;99.90
63966;DHT22;50151;52.030;5.350;2022-11-21T21:19:18;6.50;99.90
63966;DHT22;50151;52.030;5.350;2022-11-21T21:21:44;6.50;99.90
63966;DHT22;50151;52.030;5.350;2022-11-21T21:24:12;6.60;99.90
63966;DHT22;50151;52.030;5.350;2022-11-21T21:26:44;6.50;99.90
63966;DHT22;50151;52.030;5.350;2022-11-21T21:29:14;6.50;99.90
63966;DHT22;50151;52.030;5.350;2022-11-21T21:31:41;6.50;99.90
63966;DHT22;50151;52.030;5.350;2022-11-21T21:34:16;6.50;99.90
63966;DHT22;50151;52.030;5.350;2022-11-21T21:36:43;6.50;99.90
63966;DHT22;50151;52.030;5.350;2022-11-21T21:39:10;6.50;99.90
63966;DHT22;50151;52.030;5.350;2022-11-21T21:41:37;6.50;99.90
63966;DHT22;50151;52.030;5.350;2022-11-21T21:44:10;6.50;99.90
63966;DHT22;50151;52.030;5.350;2022-11-21T21:46:37;6.50;99.90
63966;DHT22;50151;52.030;5.350;2022-11-21T21:49:04;6.50;99.90
63966;DHT22;50151;52.030;5.350;2022-11-21T21:51:30;6.50;99.90
63966;DHT22;50151;52.030;5.350;2022-11-21T21:53:58;6.50;99.90
63966;DHT22;50151;52.030;5.350;2022-11-21T21:56:26;6.50;99.90
63966;DHT22;50151;52.030;5.350;2022-11-21T21:58:55;6.50;99.90
63966;DHT22;50151;52.030;5.350;2022-11-21T22:01:29;6.50;99.90
63966;DHT22;50151;52.030;5.350;2022-11-21T22:03:58;6.50;99.90
63966;DHT22;50151;52.030;5.350;2022-11-21T22:06:25;6.50;99.90
63966;DHT22;50151;52.030;5.350;2022-11-21T22:08:53;6.50;99.90
63966;DHT22;50151;52.030;5.350;2022-11-21T22:11:22;6.50;99.90
63966;DHT22;50151;52.030;5.350;2022-11-21T22:13:54;6.50;99.90
63966;DHT22;50151;52.030;5.350;2022-11-21T22:16:21;6.50;99.90
63966;DHT22;50151;52.030;5.350;2022-11-21T22:18:48;6.50;99.90
63966;DHT22;50151;52.030;5.350;2022-11-21T22:21:17;6.50;99.90
63966;DHT22;50151;52.030;5.350;2022-11-21T22:23:45;6.50;99.90
63966;DHT22;50151;52.030;5.350;2022-11-21T22:26:32;6.50;99.90
63966;DHT22;50151;52.030;5.350;2022-11-21T22:28:58;6.50;99.90
63966;DHT22;50151;52.030;5.350;2022-11-21T22:31:27;6.50;99.90
63966;DHT22;50151;52.030;5.350;2022-11-21T22:33:54;6.50;99.90
63966;DHT22;50151;52.030;5.350;2022-11-21T22:36:21;6.50;99.90
63966;DHT22;50151;52.030;5.350;2022-11-21T22:38:51;6.50;99.90
63966;DHT22;50151;52.030;5.350;2022-11-21T22:41:19;6.60;99.90
63966;DHT22;50151;52.030;5.350;2022-11-21T22:43:55;6.60;99.90
63966;DHT22;50151;52.030;5.350;2022-11-21T22:46:24;6.60;99.90
63966;DHT22;50151;52.030;5.350;2022-11-21T22:48:51;6.50;99.90
63966;DHT22;50151;52.030;5.350;2022-11-21T22:51:21;6.50;99.90
63966;DHT22;50151;52.030;5.350;2022-11-21T22:53:48;6.60;99.90
63966;DHT22;50151;52.030;5.350;2022-11-21T22:56:17;6.60;99.90
63966;DHT22;50151;52.030;5.350;2022-11-21T22:58:45;6.50;99.90
63966;DHT22;50151;52.030;5.350;2022-11-21T23:01:17;6.60;99.90
63966;DHT22;50151;52.030;5.350;2022-11-21T23:03:45;6.60;99.90
63966;DHT22;50151;52.030;5.350;2022-11-21T23:06:14;6.60;99.90
63966;DHT22;50151;52.030;5.350;2022-11-21T23:08:41;6.60;99.90
63966;DHT22;50151;52.030;5.350;2022-11-21T23:11:10;6.60;99.90
63966;DHT22;50151;52.030;5.350;2022-11-21T23:13:39;6.60;99.90
63966;DHT22;50151;52.030;5.350;2022-11-21T23:16:08;6.60;99.90
63966;DHT22;50151;52.030;5.350;2022-11-21T23:18:36;6.60;99.90
63966;DHT22;50151;52.030;5.350;2022-11-21T23:21:04;6.60;99.90
63966;DHT22;50151;52.030;5.350;2022-11-21T23:23:31;6.60;99.90
63966;DHT22;50151;52.030;5.350;2022-11-21T23:25:58;6.60;99.90
63966;DHT22;50151;52.030;5.350;2022-11-21T23:28:24;6.60;99.90
63966;DHT22;50151;52.030;5.350;2022-11-21T23:30:51;6.60;99.90
63966;DHT22;50151;52.030;5.350;2022-11-21T23:33:18;6.60;99.90
63966;DHT22;50151;52.030;5.350;2022-11-21T23:35:45;6.60;99.90
63966;DHT22;50151;52.030;5.350;2022-11-21T23:38:14;6.60;99.90
63966;DHT22;50151;52.030;5.350;2022-11-21T23:40:42;6.70;99.90
63966;DHT22;50151;52.030;5.350;2022-11-21T23:43:09;6.60;99.90
63966;DHT22;50151;52.030;5.350;2022-11-21T23:45:36;6.60;99.90
63966;DHT22;50151;52.030;5.350;2022-11-21T23:48:03;6.70;99.90
63966;DHT22;50151;52.030;5.350;2022-11-21T23:50:30;6.70;99.90
63966;DHT22;50151;52.030;5.350;2022-11-21T23:52:56;6.60;99.90
63966;DHT22;50151;52.030;5.350;2022-11-21T23:55:23;6.70;99.90
63966;DHT22;50151;52.030;5.350;2022-11-21T23:57:50;6.60;99.90
